createdAt,value
2018-02-17T00:01:05.615Z,96312
2018-02-17T00:06:33.770Z,96312
2018-02-17T00:12:02.912Z,96305
2018-02-17T00:17:31.847Z,96294
2018-02-17T00:23:00.008Z,96281
2018-02-17T00:28:28.153Z,96279
2018-02-17T00:33:56.293Z,96288
2018-02-17T00:39:24.432Z,96285
2018-02-17T00:44:52.569Z,96286
2018-02-17T00:50:21.474Z,96283
2018-02-17T00:55:49.633Z,96280
2018-02-17T01:01:17.792Z,96275
2018-02-17T01:06:45.944Z,96278
2018-02-17T01:12:14.075Z,96269
2018-02-17T01:17:42.229Z,96271
2018-02-17T01:23:11.154Z,96260
2018-02-17T01:28:39.297Z,96252
2018-02-17T01:34:08.215Z,96250
2018-02-17T01:39:36.489Z,96247
2018-02-17T01:45:04.638Z,96231
2018-02-17T01:50:33.721Z,96219
2018-02-17T01:56:02.646Z,96201
2018-02-17T02:01:30.803Z,96200
2018-02-17T02:06:58.959Z,96184
2018-02-17T02:12:27.084Z,96189
2018-02-17T02:17:55.236Z,96173
2018-02-17T02:23:24.145Z,96169
2018-02-17T02:28:52.281Z,96162
2018-02-17T02:34:20.428Z,96143
2018-02-17T02:39:49.322Z,96139
2018-02-17T02:45:17.453Z,96144
2018-02-17T02:50:45.591Z,96133
2018-02-17T02:56:14.491Z,96119
2018-02-17T03:01:42.613Z,96102
2018-02-17T03:07:10.764Z,96090
2018-02-17T03:12:39.674Z,96083
2018-02-17T03:18:07.804Z,96066
2018-02-17T03:23:35.944Z,96060
2018-02-17T03:29:04.878Z,96045
2018-02-17T03:34:33.022Z,96038
2018-02-17T03:40:01.155Z,96031
2018-02-17T03:45:29.288Z,96037
2018-02-17T03:50:57.449Z,96028
2018-02-17T03:56:25.592Z,95999
2018-02-17T04:01:53.735Z,96006
2018-02-17T04:07:21.862Z,96003
2018-02-17T04:12:50.026Z,96006
2018-02-17T04:18:18.173Z,96012
2018-02-17T04:23:46.313Z,96027
2018-02-17T04:29:14.452Z,96021
2018-02-17T04:34:42.580Z,95988
2018-02-17T04:46:41.268Z,95963
2018-02-17T04:52:10.432Z,95947
2018-02-17T04:57:44.207Z,95944
2018-02-17T05:03:14.643Z,95942
2018-02-17T05:14:46.323Z,95909
2018-02-17T05:20:16.338Z,95901
2018-02-17T05:25:51.076Z,95892
2018-02-17T05:31:21.772Z,95884
2018-02-17T05:36:51.874Z,95865
2018-02-17T05:42:22.538Z,95868
2018-02-17T05:47:56.372Z,95871
2018-02-17T05:53:24.508Z,95857
2018-02-17T05:58:52.664Z,95869
2018-02-17T06:04:20.804Z,95855
2018-02-17T06:09:48.940Z,95860
2018-02-17T06:15:17.848Z,95844
2018-02-17T06:20:45.986Z,95844
2018-02-17T06:26:14.872Z,95810
2018-02-17T06:31:43.006Z,95817
2018-02-17T06:37:11.160Z,95814
2018-02-17T06:42:40.059Z,95816
2018-02-17T06:48:08.205Z,95798
2018-02-17T06:53:36.340Z,95788
2018-02-17T06:59:05.271Z,95772
2018-02-17T07:04:33.411Z,95755
2018-02-17T07:10:01.529Z,95741
2018-02-17T07:15:29.689Z,95732
2018-02-17T07:20:57.963Z,95752
2018-02-17T07:26:26.320Z,95751
2018-02-17T07:31:54.464Z,95725
2018-02-17T07:37:22.607Z,95729
2018-02-17T07:42:51.517Z,95710
2018-02-17T07:48:19.732Z,95709
2018-02-17T07:53:47.876Z,95706
2018-02-17T07:59:16.014Z,95721
2018-02-17T08:04:44.926Z,95742
2018-02-17T08:10:13.067Z,95721
2018-02-17T08:15:41.982Z,95723
2018-02-17T08:21:10.131Z,95709
2018-02-17T08:26:39.167Z,95698
2018-02-17T08:32:08.075Z,95704
2018-02-17T08:37:36.303Z,95688
2018-02-17T08:43:04.469Z,95659
2018-02-17T08:48:32.612Z,95627
2018-02-17T08:54:00.751Z,95591
2018-02-17T08:59:28.912Z,95580
2018-02-17T09:04:57.835Z,95594
2018-02-17T09:10:44.731Z,95558
2018-02-17T09:16:12.849Z,95525
2018-02-17T09:21:40.980Z,95517
2018-02-17T09:27:09.143Z,95515
2018-02-17T09:32:37.349Z,95540
2018-02-17T09:38:05.471Z,95561
2018-02-17T09:43:33.637Z,95550
2018-02-17T09:49:01.804Z,95553
2018-02-17T09:54:29.960Z,95565
2018-02-17T09:59:58.858Z,95581
2018-02-17T10:05:27.007Z,95577
2018-02-17T10:10:55.148Z,95588
2018-02-17T10:16:23.295Z,95581
2018-02-17T10:21:51.436Z,95584
2018-02-17T10:27:19.586Z,95580
2018-02-17T10:32:48.502Z,95585
2018-02-17T10:38:16.632Z,95585
2018-02-17T10:43:44.769Z,95571
2018-02-17T10:49:13.854Z,95560
2018-02-17T10:54:41.994Z,95560
2018-02-17T11:00:10.155Z,95547
2018-02-17T11:05:39.266Z,95544
2018-02-17T11:11:07.437Z,95534
2018-02-17T11:16:35.576Z,95518
2018-02-17T11:22:03.701Z,95524
2018-02-17T11:27:31.823Z,95518
2018-02-17T11:32:59.949Z,95497
2018-02-17T11:38:28.092Z,95497
2018-02-17T11:43:56.245Z,95473
2018-02-17T11:49:24.371Z,95463
2018-02-17T11:54:52.515Z,95454
2018-02-17T12:00:20.684Z,95445
2018-02-17T12:05:49.578Z,95433
2018-02-17T12:11:17.715Z,95438
2018-02-17T12:16:45.848Z,95438
2018-02-17T12:22:14.020Z,95448
2018-02-17T12:27:42.947Z,95434
2018-02-17T12:33:11.090Z,95443
2018-02-17T12:38:39.221Z,95441
2018-02-17T12:44:07.379Z,95449
2018-02-17T12:49:36.443Z,95431
2018-02-17T12:55:04.592Z,95434
2018-02-17T13:00:32.743Z,95437
2018-02-17T13:06:00.890Z,95433
2018-02-17T13:11:47.291Z,95458
2018-02-17T13:17:15.517Z,95469
2018-02-17T13:22:52.778Z,95478
2018-02-17T13:28:25.623Z,95471
2018-02-17T13:33:54.518Z,95472
2018-02-17T13:39:22.662Z,95464
2018-02-17T13:44:51.576Z,95487
2018-02-17T13:50:19.729Z,95440
2018-02-17T13:55:48.632Z,95463
2018-02-17T14:01:16.788Z,95474
2018-02-17T14:06:44.940Z,95477
2018-02-17T14:12:13.102Z,95482
2018-02-17T14:17:41.237Z,95464
2018-02-17T14:23:09.393Z,95467
2018-02-17T14:28:37.553Z,95462
2018-02-17T14:34:05.697Z,95484
2018-02-17T14:39:33.856Z,95483
2018-02-17T14:45:01.999Z,95476
2018-02-17T14:50:30.144Z,95477
2018-02-17T14:55:58.298Z,95464
2018-02-17T15:01:27.348Z,95466
2018-02-17T15:06:55.507Z,95461
2018-02-17T15:12:23.702Z,95458
2018-02-17T15:17:51.857Z,95463
2018-02-17T15:23:20.047Z,95461
2018-02-17T15:28:48.190Z,95473
2018-02-17T15:34:16.318Z,95467
2018-02-17T15:39:44.468Z,95452
2018-02-17T15:45:13.384Z,95447
2018-02-17T15:50:41.519Z,95449
2018-02-17T15:56:10.444Z,95462
2018-02-17T16:01:38.602Z,95464
2018-02-17T16:07:06.778Z,95474
2018-02-17T16:12:35.027Z,95470
2018-02-17T16:18:03.213Z,95495
2018-02-17T16:23:31.366Z,95491
2018-02-17T16:29:00.374Z,95492
2018-02-17T16:34:28.537Z,95520
2018-02-17T16:39:57.464Z,95529
2018-02-17T16:45:25.629Z,95531
2018-02-17T16:50:53.788Z,95553
2018-02-17T16:56:21.970Z,95557
2018-02-17T17:01:50.122Z,95569
2018-02-17T17:07:18.259Z,95582
2018-02-17T17:12:46.420Z,95582
2018-02-17T17:18:14.597Z,95590
2018-02-17T17:23:42.755Z,95594
2018-02-17T17:29:10.903Z,95597
2018-02-17T17:34:39.073Z,95599
2018-02-17T17:40:07.972Z,95612
2018-02-17T17:45:36.136Z,95620
2018-02-17T17:51:04.289Z,95629
2018-02-17T17:56:32.464Z,95632
2018-02-17T18:02:01.379Z,95646
2018-02-17T18:07:29.537Z,95647
2018-02-17T18:12:57.691Z,95653
2018-02-17T18:18:25.843Z,95663
2018-02-17T18:23:53.995Z,95668
2018-02-17T18:29:22.139Z,95674
2018-02-17T18:34:50.284Z,95688
2018-02-17T18:40:18.509Z,95683
2018-02-17T18:45:46.646Z,95686
2018-02-17T18:51:14.796Z,95690
2018-02-17T18:56:43.023Z,95703
2018-02-17T19:02:11.160Z,95699
2018-02-17T19:07:39.320Z,95702
2018-02-17T19:13:07.449Z,95706
2018-02-17T19:18:37.123Z,95714
2018-02-17T19:24:05.495Z,95723
2018-02-17T19:29:33.664Z,95726
2018-02-17T19:35:01.824Z,95728
2018-02-17T19:40:29.983Z,95738
2018-02-17T19:45:58.139Z,95742
2018-02-17T19:51:26.295Z,95746
2018-02-17T19:56:54.476Z,95749
2018-02-17T20:02:22.702Z,95754
2018-02-17T20:07:50.839Z,95759
2018-02-17T20:13:18.987Z,95766
2018-02-17T20:18:47.135Z,95769
2018-02-17T20:24:16.020Z,95783
2018-02-17T20:29:44.162Z,95787
2018-02-17T20:35:12.312Z,95791
2018-02-17T20:40:41.416Z,95798
2018-02-17T20:46:09.614Z,95811
2018-02-17T20:51:37.820Z,95808
2018-02-17T20:57:06.739Z,95818
2018-02-17T21:02:35.663Z,95822
2018-02-17T21:08:03.866Z,95831
2018-02-17T21:13:32.025Z,95837
2018-02-17T21:19:00.159Z,95845
2018-02-17T21:24:28.336Z,95853
2018-02-17T21:29:56.490Z,95861
2018-02-17T21:35:24.637Z,95869
2018-02-17T21:40:52.776Z,95876
2018-02-17T21:46:20.912Z,95876
2018-02-17T21:51:49.071Z,95890
2018-02-17T21:57:17.216Z,95898
2018-02-17T22:02:45.370Z,95900
2018-02-17T22:08:13.535Z,95916
2018-02-17T22:13:42.512Z,95922
2018-02-17T22:19:10.673Z,95927
2018-02-17T22:24:39.594Z,95924
2018-02-17T22:30:08.506Z,95939
2018-02-17T22:35:36.667Z,95943
2018-02-17T22:41:04.849Z,95948
2018-02-17T22:46:32.984Z,95950
2018-02-17T22:52:01.150Z,95962
2018-02-17T22:57:30.048Z,95972
2018-02-17T23:02:58.949Z,95974
2018-02-17T23:08:27.118Z,95976
2018-02-17T23:13:56.001Z,95986
2018-02-17T23:19:24.143Z,95995
2018-02-17T23:24:52.300Z,95996
2018-02-17T23:30:20.459Z,96011
2018-02-17T23:35:48.656Z,96008
2018-02-17T23:41:16.794Z,96011
2018-02-17T23:46:44.943Z,96012
2018-02-17T23:52:13.083Z,96021
2018-02-17T23:57:42.016Z,96020
